createdAt,value
2022-08-01T00:00:09.042Z,99.90
2022-08-01T00:02:39.656Z,99.90
2022-08-01T00:05:07.606Z,99.90
2022-08-01T00:07:38.257Z,99.90
2022-08-01T00:10:05.937Z,99.90
2022-08-01T00:12:32.875Z,99.90
2022-08-01T00:14:59.868Z,99.90
2022-08-01T00:17:26.797Z,99.90
2022-08-01T00:19:53.737Z,99.90
2022-08-01T00:22:21.336Z,99.90
2022-08-01T00:24:48.322Z,99.90
2022-08-01T00:27:15.305Z,99.90
2022-08-01T00:30:11.766Z,99.90
2022-08-01T00:32:32.139Z,99.90
2022-08-01T00:34:59.103Z,99.90
2022-08-01T00:37:26.028Z,99.90
2022-08-01T00:39:53.024Z,99.90
2022-08-01T00:42:20.266Z,99.90
2022-08-01T00:44:48.246Z,99.90
2022-08-01T00:47:15.169Z,99.90
2022-08-01T00:49:42.181Z,99.90
2022-08-01T00:52:09.463Z,99.90
2022-08-01T00:54:36.838Z,99.90
2022-08-01T00:57:03.924Z,99.90
2022-08-01T00:59:31.555Z,99.90
2022-08-01T01:01:58.944Z,99.90
2022-08-01T01:04:26.097Z,99.90
2022-08-01T01:07:05.674Z,99.90
2022-08-01T01:09:32.661Z,99.90
2022-08-01T01:12:14.837Z,99.90
2022-08-01T01:14:47.376Z,99.90
2022-08-01T01:17:31.254Z,99.90
2022-08-01T01:20:06.795Z,99.90
2022-08-01T01:22:48.982Z,99.90
2022-08-01T01:25:35.054Z,99.90
2022-08-01T01:28:11.231Z,99.90
2022-08-01T01:30:40.068Z,99.90
2022-08-01T01:33:08.337Z,99.90
2022-08-01T01:35:36.902Z,99.90
2022-08-01T01:38:10.174Z,99.90
2022-08-01T01:40:38.017Z,99.90
2022-08-01T01:43:06.033Z,99.90
2022-08-01T01:45:33.147Z,99.90
2022-08-01T01:48:00.548Z,99.90
2022-08-01T01:50:28.379Z,99.90
2022-08-01T01:52:56.377Z,99.90
2022-08-01T01:55:25.149Z,99.90
2022-08-01T01:57:53.173Z,99.90
2022-08-01T02:00:20.146Z,99.90
2022-08-01T02:02:47.345Z,99.90
2022-08-01T02:05:14.767Z,99.90
2022-08-01T02:07:42.035Z,99.90
2022-08-01T02:10:09.909Z,99.90
2022-08-01T02:12:39.246Z,99.90
2022-08-01T02:15:07.093Z,99.90
2022-08-01T02:17:37.884Z,99.90
2022-08-01T02:20:05.134Z,99.90
2022-08-01T02:22:37.916Z,99.90
2022-08-01T02:25:09.004Z,99.90
2022-08-01T02:27:40.505Z,99.90
2022-08-01T02:30:08.615Z,99.90
2022-08-01T02:32:44.040Z,99.90
2022-08-01T02:35:12.790Z,99.90
2022-08-01T02:37:41.672Z,99.90
2022-08-01T02:40:14.318Z,99.90
2022-08-01T02:42:44.647Z,99.90
2022-08-01T02:45:12.766Z,99.90
2022-08-01T02:47:41.221Z,99.90
2022-08-01T02:50:09.431Z,99.90
2022-08-01T02:52:37.380Z,99.90
2022-08-01T02:55:05.050Z,99.90
2022-08-01T02:57:51.843Z,99.90
2022-08-01T03:00:19.418Z,99.90
2022-08-01T03:02:49.531Z,99.90
2022-08-01T03:05:18.316Z,99.90
2022-08-01T03:07:45.865Z,99.90
2022-08-01T03:10:17.250Z,99.90
2022-08-01T03:12:45.800Z,99.90
2022-08-01T03:15:15.827Z,99.90
2022-08-01T03:17:44.243Z,99.90
2022-08-01T03:20:13.452Z,99.90
2022-08-01T03:22:41.060Z,99.90
2022-08-01T03:25:09.111Z,99.90
2022-08-01T03:27:37.418Z,99.90
2022-08-01T03:30:05.960Z,99.90
2022-08-01T03:32:33.037Z,99.90
2022-08-01T03:34:59.899Z,99.90
2022-08-01T03:37:32.882Z,99.90
2022-08-01T03:40:03.249Z,99.90
2022-08-01T03:42:34.430Z,99.90
2022-08-01T03:45:13.704Z,99.90
2022-08-01T03:47:44.660Z,99.90
2022-08-01T03:50:12.956Z,99.90
2022-08-01T03:52:40.649Z,99.90
2022-08-01T03:55:08.269Z,99.90
2022-08-01T03:57:37.073Z,99.90
2022-08-01T04:00:07.392Z,99.90
2022-08-01T04:02:34.434Z,99.90
2022-08-01T04:05:01.562Z,99.90
2022-08-01T04:07:30.068Z,99.90
2022-08-01T04:09:57.930Z,99.90
2022-08-01T04:12:25.248Z,99.90
2022-08-01T04:14:52.332Z,99.90
2022-08-01T04:17:19.267Z,99.90
2022-08-01T04:19:46.217Z,99.90
2022-08-01T04:22:14.937Z,99.90
2022-08-01T04:24:43.622Z,99.90
2022-08-01T04:27:12.376Z,99.90
2022-08-01T04:29:39.633Z,99.90
2022-08-01T04:32:08.511Z,99.90
2022-08-01T04:34:35.845Z,99.90
2022-08-01T04:37:03.462Z,99.90
2022-08-01T04:39:32.361Z,99.90
2022-08-01T04:42:05.013Z,99.90
2022-08-01T04:44:33.561Z,99.90
2022-08-01T04:47:04.436Z,99.90
2022-08-01T04:49:48.943Z,99.90
2022-08-01T04:52:23.050Z,99.90
2022-08-01T04:54:51.636Z,99.90
2022-08-01T04:57:18.621Z,99.90
2022-08-01T04:59:45.656Z,99.90
2022-08-01T05:02:13.692Z,99.90
2022-08-01T05:04:41.338Z,99.90
2022-08-01T05:07:08.591Z,99.90
2022-08-01T05:09:37.026Z,99.90
2022-08-01T05:12:05.376Z,99.90
2022-08-01T05:14:33.296Z,99.90
2022-08-01T05:17:00.971Z,99.90
2022-08-01T05:19:27.949Z,99.90
2022-08-01T05:21:54.851Z,99.90
2022-08-01T05:24:30.327Z,99.90
2022-08-01T05:26:57.928Z,99.90
2022-08-01T05:29:25.417Z,99.90
2022-08-01T05:31:52.582Z,99.90
2022-08-01T05:34:19.858Z,99.90
2022-08-01T05:36:46.980Z,99.90
2022-08-01T05:39:13.969Z,99.90
2022-08-01T05:41:41.434Z,99.90
2022-08-01T05:44:08.751Z,99.90
2022-08-01T05:46:36.241Z,99.90
2022-08-01T05:49:03.781Z,99.90
2022-08-01T05:51:30.943Z,99.90
2022-08-01T05:53:58.072Z,99.90
2022-08-01T05:56:26.616Z,99.90
2022-08-01T05:58:56.335Z,99.90
2022-08-01T06:01:23.398Z,99.90
2022-08-01T06:03:50.333Z,99.90
2022-08-01T06:06:17.224Z,99.90
2022-08-01T06:08:44.347Z,99.90
2022-08-01T06:11:11.250Z,99.90
2022-08-01T06:13:45.586Z,99.90
2022-08-01T06:16:16.369Z,99.90
2022-08-01T06:18:43.369Z,99.90
2022-08-01T06:21:10.436Z,99.90
2022-08-01T06:23:38.363Z,99.90
2022-08-01T06:26:05.414Z,99.90
2022-08-01T06:28:32.372Z,99.90
2022-08-01T06:31:00.336Z,99.90
2022-08-01T06:33:28.407Z,99.90
2022-08-01T06:35:55.368Z,99.90
2022-08-01T06:38:22.560Z,99.90
2022-08-01T06:40:49.702Z,99.90
2022-08-01T06:43:16.763Z,99.90
2022-08-01T06:45:43.750Z,99.90
2022-08-01T06:48:10.719Z,99.90
2022-08-01T06:50:37.734Z,99.90
2022-08-01T06:53:04.727Z,99.90
2022-08-01T06:55:31.964Z,99.90
2022-08-01T06:57:58.926Z,99.90
2022-08-01T07:00:26.730Z,99.90
2022-08-01T07:02:54.925Z,99.90
2022-08-01T07:05:21.912Z,99.90
2022-08-01T07:07:48.836Z,99.90
2022-08-01T07:10:15.739Z,99.90
2022-08-01T07:12:42.789Z,99.90
2022-08-01T07:15:10.368Z,99.90
2022-08-01T07:17:38.249Z,99.90
2022-08-01T07:20:05.711Z,99.90
2022-08-01T07:22:37.624Z,99.90
2022-08-01T07:25:08.493Z,99.90
2022-08-01T07:27:35.526Z,99.90
2022-08-01T07:30:02.844Z,99.90
2022-08-01T07:32:30.701Z,99.90
2022-08-01T07:34:58.060Z,99.90
2022-08-01T07:37:47.836Z,99.90
2022-08-01T07:40:14.756Z,99.90
2022-08-01T07:42:46.057Z,99.90
2022-08-01T07:45:13.774Z,99.90
2022-08-01T07:47:40.668Z,99.90
2022-08-01T07:50:08.117Z,99.90
2022-08-01T07:52:35.020Z,99.90
2022-08-01T07:55:02.022Z,99.90
2022-08-01T07:57:29.166Z,99.90
2022-08-01T07:59:56.389Z,99.90
2022-08-01T08:02:23.354Z,99.90
2022-08-01T08:04:50.365Z,99.90
2022-08-01T08:07:17.323Z,99.90
2022-08-01T08:09:44.187Z,99.90
2022-08-01T08:12:17.963Z,99.90
2022-08-01T08:14:45.376Z,99.90
2022-08-01T08:17:12.236Z,99.90
2022-08-01T08:19:40.339Z,99.90
2022-08-01T08:22:08.532Z,99.90
2022-08-01T08:24:36.431Z,99.90
2022-08-01T08:27:12.828Z,99.90
2022-08-01T08:29:39.820Z,99.90
2022-08-01T08:32:07.217Z,99.90
2022-08-01T08:34:34.394Z,99.90
2022-08-01T08:37:01.331Z,99.90
2022-08-01T08:39:30.601Z,99.90
2022-08-01T08:42:00.668Z,99.90
2022-08-01T08:44:28.120Z,99.90
2022-08-01T08:46:57.149Z,99.90
2022-08-01T08:49:25.343Z,99.90
2022-08-01T08:51:53.546Z,99.90
2022-08-01T08:54:31.169Z,99.90
2022-08-01T08:56:59.768Z,99.90
2022-08-01T08:59:27.511Z,99.90
2022-08-01T09:01:54.486Z,99.90
2022-08-01T09:04:25.827Z,99.90
2022-08-01T09:06:54.064Z,99.90
2022-08-01T09:09:21.023Z,99.90
2022-08-01T09:12:06.995Z,99.90
2022-08-01T09:14:36.319Z,99.90
2022-08-01T09:17:03.229Z,99.90
2022-08-01T09:19:40.192Z,99.90
2022-08-01T09:22:10.004Z,99.90
2022-08-01T09:24:37.471Z,99.90
2022-08-01T09:27:26.615Z,99.90
2022-08-01T09:30:01.201Z,99.90
2022-08-01T09:32:35.837Z,99.90
2022-08-01T09:35:21.989Z,99.90
2022-08-01T09:37:48.910Z,99.90
2022-08-01T09:40:15.859Z,99.90
2022-08-01T09:42:42.981Z,99.90
2022-08-01T09:45:10.075Z,99.90
2022-08-01T09:47:50.157Z,99.90
2022-08-01T09:50:17.895Z,99.90
2022-08-01T09:52:54.224Z,99.90
2022-08-01T09:55:22.512Z,99.90
2022-08-01T09:58:01.860Z,99.90
2022-08-01T10:00:44.794Z,99.70
2022-08-01T10:03:28.331Z,98.60
2022-08-01T10:05:55.446Z,99.20
2022-08-01T10:08:24.384Z,98.90
2022-08-01T10:11:14.231Z,97.90
2022-08-01T10:13:43.690Z,97.40
2022-08-01T10:16:11.190Z,96.70
2022-08-01T10:18:39.828Z,97.30
2022-08-01T10:21:08.711Z,97.80
2022-08-01T10:23:40.062Z,96.80
2022-08-01T10:26:08.620Z,96.90
2022-08-01T10:28:39.398Z,97.70
2022-08-01T10:31:12.693Z,96.90
2022-08-01T10:33:52.042Z,97.70
2022-08-01T10:36:25.352Z,96.90
2022-08-01T10:38:53.890Z,96.80
2022-08-01T10:41:21.911Z,97.00
2022-08-01T10:43:48.975Z,97.10
2022-08-01T10:46:17.542Z,97.00
2022-08-01T10:48:44.445Z,97.00
2022-08-01T10:51:18.157Z,97.10
2022-08-01T10:53:53.964Z,97.20
2022-08-01T10:56:26.473Z,97.80
2022-08-01T10:59:02.011Z,96.80
2022-08-01T11:01:37.600Z,96.20
2022-08-01T11:04:05.348Z,96.40
2022-08-01T11:06:35.371Z,96.50
2022-08-01T11:09:05.964Z,95.30
2022-08-01T11:11:37.245Z,95.40
2022-08-01T11:14:10.679Z,94.80
2022-08-01T11:16:40.161Z,94.80
2022-08-01T11:19:09.448Z,94.70
2022-08-01T11:21:58.630Z,94.00
2022-08-01T11:24:45.305Z,94.20
2022-08-01T11:27:20.693Z,94.00
2022-08-01T11:30:09.549Z,93.80
2022-08-01T11:33:10.827Z,94.40
2022-08-01T11:35:35.894Z,93.70
2022-08-01T11:38:21.456Z,94.50
2022-08-01T11:40:48.840Z,93.90
2022-08-01T11:43:17.791Z,94.00
2022-08-01T11:45:50.868Z,94.00
2022-08-01T11:48:21.707Z,94.80
2022-08-01T11:50:57.860Z,94.80
2022-08-01T11:53:28.870Z,95.00
2022-08-01T11:55:58.208Z,94.70
2022-08-01T11:58:29.207Z,95.20
2022-08-01T12:00:58.948Z,94.50
2022-08-01T12:03:33.243Z,94.30
2022-08-01T12:06:01.111Z,94.20
2022-08-01T12:08:29.103Z,94.30
2022-08-01T12:11:02.462Z,94.40
2022-08-01T12:13:39.944Z,94.70
2022-08-01T12:16:10.370Z,95.00
2022-08-01T12:18:41.574Z,94.70
2022-08-01T12:21:08.524Z,94.50
2022-08-01T12:23:35.540Z,94.80
2022-08-01T12:26:05.027Z,94.70
2022-08-01T12:28:39.691Z,94.80
2022-08-01T12:31:06.696Z,94.60
2022-08-01T12:33:35.245Z,94.80
2022-08-01T12:36:02.357Z,94.80
2022-08-01T12:38:31.189Z,94.40
2022-08-01T12:40:58.231Z,94.10
2022-08-01T12:43:28.896Z,94.00
2022-08-01T12:45:58.025Z,92.80
2022-08-01T12:48:25.730Z,92.60
2022-08-01T12:50:53.831Z,92.20
2022-08-01T12:53:22.035Z,92.30
2022-08-01T12:55:58.039Z,91.80
2022-08-01T12:58:35.466Z,91.80
2022-08-01T13:01:06.696Z,92.30
2022-08-01T13:03:33.733Z,91.90
2022-08-01T13:06:01.232Z,91.90
2022-08-01T13:08:32.305Z,92.00
2022-08-01T13:11:18.409Z,92.30
2022-08-01T13:13:48.513Z,92.10
2022-08-01T13:16:25.838Z,91.40
2022-08-01T13:19:02.123Z,91.90
2022-08-01T13:21:29.871Z,90.50
2022-08-01T13:24:16.878Z,91.00
2022-08-01T13:26:51.821Z,90.60
2022-08-01T13:29:20.089Z,91.00
2022-08-01T13:31:47.263Z,91.20
2022-08-01T13:34:16.033Z,91.60
2022-08-01T13:36:48.843Z,90.80
2022-08-01T13:39:35.183Z,90.80
2022-08-01T13:42:02.075Z,91.60
2022-08-01T13:44:29.132Z,90.80
2022-08-01T13:46:57.287Z,90.20
2022-08-01T13:49:24.479Z,86.90
2022-08-01T13:51:51.774Z,88.30
2022-08-01T13:54:19.031Z,91.00
2022-08-01T13:56:46.034Z,90.30
2022-08-01T13:59:13.547Z,91.00
2022-08-01T14:01:40.496Z,91.40
2022-08-01T14:04:07.576Z,90.80
2022-08-01T14:06:34.519Z,90.40
2022-08-01T14:09:01.653Z,90.90
2022-08-01T14:11:37.111Z,91.40
2022-08-01T14:14:04.883Z,92.10
2022-08-01T14:16:35.483Z,90.70
2022-08-01T14:19:03.961Z,91.40
2022-08-01T14:21:31.007Z,91.70
2022-08-01T14:23:57.925Z,92.20
2022-08-01T14:26:24.895Z,92.90
2022-08-01T14:28:51.817Z,93.30
2022-08-01T14:31:18.830Z,93.60
2022-08-01T14:33:45.815Z,93.70
2022-08-01T14:36:30.378Z,93.50
2022-08-01T14:39:00.194Z,93.00
2022-08-01T14:41:30.974Z,92.40
2022-08-01T14:43:58.401Z,92.10
2022-08-01T14:46:25.489Z,91.70
2022-08-01T14:48:52.932Z,92.40
2022-08-01T14:51:19.950Z,92.30
2022-08-01T14:53:50.795Z,92.10
2022-08-01T14:56:18.605Z,92.40
2022-08-01T14:58:45.685Z,91.30
2022-08-01T15:01:12.647Z,92.00
2022-08-01T15:03:39.742Z,91.80
2022-08-01T15:06:07.576Z,91.70
2022-08-01T15:08:34.523Z,92.70
2022-08-01T15:11:02.762Z,93.50
2022-08-01T15:13:29.628Z,94.10
2022-08-01T15:15:59.802Z,94.30
2022-08-01T15:18:28.413Z,93.90
2022-08-01T15:20:55.666Z,94.50
2022-08-01T15:23:24.679Z,95.20
2022-08-01T15:25:51.604Z,95.60
2022-08-01T15:28:18.528Z,96.60
2022-08-01T15:30:46.257Z,96.70
2022-08-01T15:33:13.493Z,97.40
2022-08-01T15:35:40.828Z,97.70
2022-08-01T15:38:07.839Z,97.90
2022-08-01T15:40:35.826Z,98.40
2022-08-01T15:43:03.076Z,98.30
2022-08-01T15:45:47.005Z,98.80
2022-08-01T15:48:14.642Z,99.50
2022-08-01T15:50:41.596Z,99.90
2022-08-01T15:53:08.695Z,99.90
2022-08-01T15:55:38.300Z,99.90
2022-08-01T15:58:05.873Z,99.90
2022-08-01T16:00:36.116Z,99.80
2022-08-01T16:03:06.909Z,99.30
2022-08-01T16:05:36.356Z,99.40
2022-08-01T16:08:06.657Z,99.60
2022-08-01T16:10:36.541Z,99.70
2022-08-01T16:13:05.698Z,99.80
2022-08-01T16:15:36.952Z,99.90
2022-08-01T16:18:05.817Z,99.90
2022-08-01T16:20:33.087Z,99.90
2022-08-01T16:23:00.030Z,99.90
2022-08-01T16:25:27.029Z,99.90
2022-08-01T16:27:54.260Z,99.90
2022-08-01T16:30:21.238Z,99.90
2022-08-01T16:32:54.975Z,99.90
2022-08-01T16:35:36.076Z,99.90
2022-08-01T16:38:06.969Z,99.90
2022-08-01T16:40:34.980Z,99.90
2022-08-01T16:43:15.120Z,99.90
2022-08-01T16:45:43.370Z,99.90
2022-08-01T16:48:12.364Z,99.90
2022-08-01T16:50:39.548Z,99.90
2022-08-01T16:53:06.450Z,99.90
2022-08-01T16:55:42.580Z,99.90
2022-08-01T16:58:18.219Z,99.90
2022-08-01T17:00:57.086Z,99.90
2022-08-01T17:03:52.577Z,99.90
2022-08-01T17:06:11.757Z,99.90
2022-08-01T17:08:46.609Z,99.90
2022-08-01T17:11:14.810Z,99.90
2022-08-01T17:13:41.884Z,99.90
2022-08-01T17:16:08.816Z,99.90
2022-08-01T17:18:35.836Z,99.90
2022-08-01T17:21:02.782Z,99.90
2022-08-01T17:23:31.905Z,99.90
2022-08-01T17:25:59.234Z,99.90
2022-08-01T17:28:26.380Z,99.90
2022-08-01T17:30:53.281Z,99.90
2022-08-01T17:33:20.436Z,99.90
2022-08-01T17:35:47.527Z,99.90
2022-08-01T17:38:14.792Z,99.90
2022-08-01T17:40:42.051Z,99.90
2022-08-01T17:43:09.098Z,99.90
2022-08-01T17:45:47.651Z,99.90
2022-08-01T17:48:18.852Z,99.90
2022-08-01T17:50:46.932Z,99.90
2022-08-01T17:53:14.780Z,99.90
2022-08-01T17:55:55.333Z,99.90
2022-08-01T17:58:36.759Z,99.90
2022-08-01T18:01:16.106Z,99.90
2022-08-01T18:03:43.458Z,99.90
2022-08-01T18:06:11.311Z,99.90
2022-08-01T18:08:40.526Z,99.90
2022-08-01T18:11:08.250Z,99.90
2022-08-01T18:13:36.362Z,99.90
2022-08-01T18:16:06.513Z,99.90
2022-08-01T18:18:34.218Z,99.90
2022-08-01T18:21:02.022Z,99.90
2022-08-01T18:23:29.088Z,99.90
2022-08-01T18:25:56.059Z,99.90
2022-08-01T18:28:33.765Z,99.90
2022-08-01T18:31:03.735Z,99.90
2022-08-01T18:33:30.751Z,99.90
2022-08-01T18:36:03.772Z,99.90
2022-08-01T18:38:35.130Z,99.90
2022-08-01T18:41:02.206Z,99.90
2022-08-01T18:43:29.267Z,99.90
2022-08-01T18:45:59.046Z,99.90
2022-08-01T18:48:26.009Z,99.90
2022-08-01T18:50:54.168Z,99.90
2022-08-01T18:53:22.616Z,99.90
2022-08-01T18:55:50.131Z,99.90
2022-08-01T18:58:17.130Z,99.90
2022-08-01T19:00:44.068Z,99.90
2022-08-01T19:03:11.013Z,99.90
2022-08-01T19:05:37.934Z,99.90
2022-08-01T19:08:07.801Z,99.90
2022-08-01T19:10:44.016Z,99.90
2022-08-01T19:13:11.002Z,99.90
2022-08-01T19:15:38.075Z,99.90
2022-08-01T19:18:05.401Z,99.90
2022-08-01T19:20:32.414Z,99.90
2022-08-01T19:22:59.504Z,99.90
2022-08-01T19:25:26.874Z,99.90
2022-08-01T19:27:55.170Z,99.90
2022-08-01T19:30:22.134Z,99.90
2022-08-01T19:32:49.452Z,99.90
2022-08-01T19:35:17.376Z,99.90
2022-08-01T19:37:47.290Z,99.90
2022-08-01T19:40:26.678Z,99.90
2022-08-01T19:42:58.926Z,99.90
2022-08-01T19:45:28.630Z,99.90
2022-08-01T19:47:56.578Z,99.90
2022-08-01T19:50:25.981Z,99.90
2022-08-01T19:52:55.517Z,99.90
2022-08-01T19:55:23.801Z,99.90
2022-08-01T19:58:10.496Z,99.90
2022-08-01T20:00:39.933Z,99.90
2022-08-01T20:03:08.019Z,99.90
2022-08-01T20:05:36.558Z,99.90
2022-08-01T20:08:03.629Z,99.90
2022-08-01T20:10:32.003Z,99.90
2022-08-01T20:12:58.991Z,99.90
2022-08-01T20:15:26.068Z,99.90
2022-08-01T20:17:52.963Z,99.90
2022-08-01T20:20:19.936Z,99.90
2022-08-01T20:22:48.214Z,99.90
2022-08-01T20:25:17.623Z,99.90
2022-08-01T20:27:44.666Z,99.90
2022-08-01T20:30:11.990Z,99.90
2022-08-01T20:32:40.386Z,99.90
2022-08-01T20:35:08.541Z,99.90
2022-08-01T20:38:04.010Z,99.90
2022-08-01T20:40:27.059Z,99.90
2022-08-01T20:42:54.216Z,99.90
2022-08-01T20:45:22.108Z,99.90
2022-08-01T20:47:49.960Z,99.90
2022-08-01T20:50:52.936Z,99.90
2022-08-01T20:53:23.825Z,99.90
2022-08-01T20:56:11.177Z,99.90
2022-08-01T20:58:44.203Z,99.90
2022-08-01T21:01:13.120Z,99.90
2022-08-01T21:03:43.285Z,99.90
2022-08-01T21:06:14.127Z,99.90
2022-08-01T21:08:45.763Z,99.90
2022-08-01T21:11:14.773Z,99.90
2022-08-01T21:13:43.688Z,99.90
2022-08-01T21:16:23.326Z,99.90
2022-08-01T21:19:16.704Z,99.90
2022-08-01T21:21:41.064Z,99.90
2022-08-01T21:24:15.842Z,99.90
2022-08-01T21:26:43.355Z,99.90
2022-08-01T21:29:10.736Z,99.90
2022-08-01T21:31:40.815Z,99.90
2022-08-01T21:34:08.479Z,99.90
2022-08-01T21:36:36.257Z,99.90
2022-08-01T21:39:04.378Z,99.90
2022-08-01T21:42:01.688Z,99.90
2022-08-01T21:44:18.866Z,99.90
2022-08-01T21:46:47.235Z,99.90
2022-08-01T21:49:14.391Z,99.90
2022-08-01T21:51:51.844Z,99.90
2022-08-01T21:54:38.918Z,99.90
2022-08-01T21:57:25.867Z,99.90
2022-08-01T22:00:02.248Z,99.90
2022-08-01T22:02:32.882Z,99.90
2022-08-01T22:05:09.978Z,99.90
2022-08-01T22:07:44.442Z,99.90
2022-08-01T22:10:13.168Z,99.90
2022-08-01T22:12:40.263Z,99.90
2022-08-01T22:15:07.583Z,99.90
2022-08-01T22:17:34.721Z,99.90
2022-08-01T22:20:01.880Z,99.90
2022-08-01T22:22:50.622Z,99.90
2022-08-01T22:25:16.963Z,99.90
2022-08-01T22:28:06.593Z,99.90
2022-08-01T22:30:32.218Z,99.90
2022-08-01T22:33:07.444Z,99.90
2022-08-01T22:35:44.707Z,99.90
2022-08-01T22:38:11.716Z,99.90
2022-08-01T22:40:40.332Z,99.90
2022-08-01T22:43:13.214Z,99.90
2022-08-01T22:45:42.661Z,99.90
2022-08-01T22:48:20.028Z,99.90
2022-08-01T22:50:50.376Z,99.90
2022-08-01T22:53:22.970Z,99.90
2022-08-01T22:55:57.915Z,99.90
2022-08-01T22:58:29.916Z,99.90
2022-08-01T23:01:00.041Z,99.90
2022-08-01T23:03:29.358Z,99.90
2022-08-01T23:05:59.862Z,99.90
2022-08-01T23:08:27.879Z,99.90
2022-08-01T23:10:55.454Z,99.90
2022-08-01T23:13:22.833Z,99.90
2022-08-01T23:15:52.327Z,99.90
2022-08-01T23:18:20.552Z,99.90
2022-08-01T23:20:47.649Z,99.90
2022-08-01T23:23:16.476Z,99.90
2022-08-01T23:25:44.331Z,99.90
2022-08-01T23:28:11.793Z,99.90
2022-08-01T23:30:38.931Z,99.90
2022-08-01T23:33:06.068Z,99.90
2022-08-01T23:35:36.904Z,99.90
2022-08-01T23:38:06.460Z,99.90
2022-08-01T23:40:34.659Z,99.90
2022-08-01T23:43:02.498Z,99.90
2022-08-01T23:46:00.710Z,99.90
2022-08-01T23:48:16.604Z,99.90
2022-08-01T23:50:43.668Z,99.90
2022-08-01T23:53:10.669Z,99.90
2022-08-01T23:55:39.862Z,99.90
2022-08-01T23:58:07.051Z,99.90
